Station: EBSP - 29/11/2020 15:21Z (il y a 26 minutes)
EBSP 291520Z AUTO 06001KT 6000 // NCD M01/M01 Q1023
Vent du 060º - 1 kt
Visibilité: 6000 m
Pas de nuages détectés
Température: -01ºC - Point de rosée: -01ºC - QNH: 1023 hPa